TAY43 EKCH-EGPH
Flight info
| Callsign | TAY43 |
|---|---|
| Flight time | 1h 40m |
| Altitude | 38000 |
| Route | ODDON DCT PETIL DCT SURAT DCT ROBEM DCT AGPED |
| Aircraft | B738/M-SDE2E3FGHIRWXY/LB1 |
Departure
| Time | 2026-05-04 14:07 |
|---|---|
| Airport | Copenhagen Kastrup Airport (EKCH) |
Arrival
| Time | 2026-05-04 15:47 |
|---|---|
| Airport | Edinburgh Airport (EGPH) |
| Time | Latitude | Longitude | Altitude | Speed | Heading |
|---|---|---|---|---|---|
| 2026-05-04 13:39 | 55.61794 | 12.67154 | 16 ft | 0 kts | 79° |
| 2026-05-04 13:58 | 55.61791 | 12.67125 | 16 ft | 0 kts | 80° |
| 2026-05-04 13:59 | 55.61787 | 12.67082 | 16 ft | 4 kts | 80° |
| 2026-05-04 13:59 | 55.61769 | 12.67008 | 17 ft | 3 kts | 355° |
| 2026-05-04 14:00 | 55.61761 | 12.67010 | 16 ft | 0 kts | 349° |
| 2026-05-04 14:01 | 55.61762 | 12.67010 | 16 ft | 1 kts | 349° |
| 2026-05-04 14:02 | 55.61786 | 12.67001 | 16 ft | 8 kts | 349° |
| 2026-05-04 14:02 | 55.61861 | 12.66967 | 16 ft | 14 kts | 330° |
| 2026-05-04 14:02 | 55.61876 | 12.66779 | 16 ft | 18 kts | 257° |
| 2026-05-04 14:02 | 55.61853 | 12.66557 | 17 ft | 17 kts | 262° |
| 2026-05-04 14:03 | 55.61845 | 12.66449 | 16 ft | 7 kts | 268° |
| 2026-05-04 14:03 | 55.61876 | 12.66372 | 16 ft | 9 kts | 339° |
| 2026-05-04 14:03 | 55.61953 | 12.66333 | 16 ft | 16 kts | 341° |
| 2026-05-04 14:03 | 55.62082 | 12.66258 | 17 ft | 19 kts | 342° |
| 2026-05-04 14:04 | 55.62265 | 12.66127 | 15 ft | 13 kts | 337° |
| 2026-05-04 14:04 | 55.62353 | 12.66079 | 16 ft | 13 kts | 5° |
| 2026-05-04 14:04 | 55.62425 | 12.66164 | 16 ft | 13 kts | 41° |
| 2026-05-04 14:05 | 55.62572 | 12.66395 | 16 ft | 18 kts | 41° |
| 2026-05-04 14:05 | 55.62615 | 12.66556 | 16 ft | 13 kts | 106° |
| 2026-05-04 14:05 | 55.62565 | 12.66682 | 15 ft | 13 kts | 136° |
| 2026-05-04 14:06 | 55.62509 | 12.66700 | 16 ft | 7 kts | 213° |
| 2026-05-04 14:06 | 55.62470 | 12.66644 | 17 ft | 12 kts | 221° |
| 2026-05-04 14:06 | 55.62151 | 12.66155 | 15 ft | 108 kts | 219° |
| 2026-05-04 14:06 | 55.61411 | 12.64946 | 231 ft | 169 kts | 226° |
| 2026-05-04 14:07 | 55.60461 | 12.63435 | 1071 ft | 196 kts | 220° |
| 2026-05-04 14:07 | 55.59364 | 12.61891 | 1916 ft | 206 kts | 223° |
| 2026-05-04 14:07 | 55.58211 | 12.60136 | 2200 ft | 233 kts | 223° |
| 2026-05-04 14:07 | 55.56934 | 12.58168 | 2803 ft | 248 kts | 224° |
| 2026-05-04 14:08 | 55.55730 | 12.55973 | 3771 ft | 249 kts | 241° |
| 2026-05-04 14:08 | 55.55308 | 12.53097 | 4841 ft | 244 kts | 272° |
| 2026-05-04 14:08 | 55.55437 | 12.50105 | 5838 ft | 245 kts | 272° |
| 2026-05-04 14:08 | 55.55498 | 12.47091 | 6779 ft | 247 kts | 271° |
| 2026-05-04 14:09 | 55.55618 | 12.40950 | 8575 ft | 253 kts | 270° |
| 2026-05-04 14:09 | 55.55675 | 12.37816 | 9494 ft | 256 kts | 270° |
| 2026-05-04 14:10 | 55.55795 | 12.31273 | 10547 ft | 289 kts | 271° |
| 2026-05-04 14:10 | 55.55864 | 12.27578 | 10800 ft | 312 kts | 271° |
| 2026-05-04 14:10 | 55.55938 | 12.23675 | 11254 ft | 323 kts | 271° |
| 2026-05-04 14:10 | 55.56015 | 12.19696 | 11675 ft | 324 kts | 271° |
| 2026-05-04 14:11 | 55.56092 | 12.15745 | 12095 ft | 321 kts | 271° |
| 2026-05-04 14:11 | 55.56243 | 12.07813 | 12975 ft | 325 kts | 271° |
| 2026-05-04 14:11 | 55.56318 | 12.03824 | 13426 ft | 326 kts | 271° |
| 2026-05-04 14:12 | 55.56391 | 11.99811 | 13866 ft | 327 kts | 271° |
| 2026-05-04 14:12 | 55.56464 | 11.95793 | 14273 ft | 328 kts | 271° |
| 2026-05-04 14:12 | 55.56581 | 11.89088 | 14962 ft | 329 kts | 271° |
| 2026-05-04 14:13 | 55.56651 | 11.85029 | 15383 ft | 331 kts | 271° |
| 2026-05-04 14:13 | 55.56719 | 11.80959 | 15811 ft | 332 kts | 270° |
| 2026-05-04 14:13 | 55.56787 | 11.76876 | 16249 ft | 334 kts | 271° |
| 2026-05-04 14:13 | 55.56853 | 11.72760 | 16686 ft | 336 kts | 271° |
| 2026-05-04 14:14 | 55.56892 | 11.70284 | 16964 ft | 339 kts | 270° |
| 2026-05-04 14:14 | 55.56989 | 11.64022 | 17881 ft | 347 kts | 270° |
| 2026-05-04 14:14 | 55.57053 | 11.59743 | 18588 ft | 349 kts | 270° |
| 2026-05-04 14:15 | 55.57179 | 11.51140 | 19864 ft | 353 kts | 270° |
| 2026-05-04 14:15 | 55.57300 | 11.42397 | 21056 ft | 359 kts | 270° |
| 2026-05-04 14:16 | 55.57417 | 11.33504 | 22200 ft | 365 kts | 270° |
| 2026-05-04 14:16 | 55.57473 | 11.29011 | 22782 ft | 367 kts | 270° |
| 2026-05-04 14:17 | 55.57582 | 11.19964 | 23794 ft | 374 kts | 270° |
| 2026-05-04 14:17 | 55.57635 | 11.15344 | 24118 ft | 380 kts | 270° |
| 2026-05-04 14:17 | 55.57738 | 11.05912 | 24952 ft | 386 kts | 270° |
| 2026-05-04 14:18 | 55.57788 | 11.01157 | 25366 ft | 389 kts | 270° |
| 2026-05-04 14:18 | 55.57882 | 10.91520 | 26148 ft | 395 kts | 270° |
| 2026-05-04 14:19 | 55.57970 | 10.81732 | 26937 ft | 401 kts | 270° |
| 2026-05-04 14:19 | 55.58013 | 10.76794 | 27327 ft | 403 kts | 270° |
| 2026-05-04 14:19 | 55.58053 | 10.71814 | 27645 ft | 407 kts | 270° |
| 2026-05-04 14:19 | 55.58093 | 10.66804 | 27989 ft | 410 kts | 271° |
| 2026-05-04 14:20 | 55.58305 | 10.61764 | 28332 ft | 413 kts | 277° |
| 2026-05-04 14:20 | 55.58717 | 10.56721 | 28671 ft | 416 kts | 278° |
| 2026-05-04 14:20 | 55.59175 | 10.51654 | 29003 ft | 418 kts | 278° |
| 2026-05-04 14:21 | 55.60109 | 10.41442 | 29639 ft | 424 kts | 278° |
| 2026-05-04 14:21 | 55.60567 | 10.36280 | 29936 ft | 426 kts | 278° |
| 2026-05-04 14:21 | 55.61019 | 10.31077 | 30195 ft | 429 kts | 278° |
| 2026-05-04 14:21 | 55.61464 | 10.25848 | 30469 ft | 430 kts | 278° |
| 2026-05-04 14:22 | 55.61903 | 10.20620 | 30826 ft | 429 kts | 278° |
| 2026-05-04 14:22 | 55.62337 | 10.15406 | 31232 ft | 427 kts | 277° |
| 2026-05-04 14:22 | 55.62766 | 10.10211 | 31623 ft | 426 kts | 278° |
| 2026-05-04 14:22 | 55.63193 | 10.04999 | 31733 ft | 432 kts | 278° |
| 2026-05-04 14:23 | 55.64055 | 9.94406 | 32256 ft | 434 kts | 278° |
| 2026-05-04 14:23 | 55.64480 | 9.89143 | 32752 ft | 430 kts | 278° |
| 2026-05-04 14:23 | 55.64899 | 9.83928 | 33185 ft | 427 kts | 277° |
| 2026-05-04 14:24 | 55.65316 | 9.78714 | 33496 ft | 427 kts | 277° |
| 2026-05-04 14:24 | 55.65730 | 9.73503 | 33787 ft | 428 kts | 277° |
| 2026-05-04 14:24 | 55.66142 | 9.68286 | 34097 ft | 427 kts | 277° |
| 2026-05-04 14:24 | 55.66551 | 9.63093 | 34412 ft | 426 kts | 277° |
| 2026-05-04 14:25 | 55.66956 | 9.57899 | 34691 ft | 425 kts | 277° |
| 2026-05-04 14:25 | 55.67763 | 9.47494 | 35025 ft | 429 kts | 277° |
| 2026-05-04 14:25 | 55.68165 | 9.42252 | 35276 ft | 429 kts | 277° |
| 2026-05-04 14:26 | 55.68564 | 9.37031 | 35648 ft | 426 kts | 277° |
| 2026-05-04 14:26 | 55.68959 | 9.31835 | 35990 ft | 424 kts | 277° |
| 2026-05-04 14:26 | 55.69350 | 9.26652 | 36239 ft | 424 kts | 277° |
| 2026-05-04 14:26 | 55.69739 | 9.21475 | 36450 ft | 424 kts | 276° |
| 2026-05-04 14:27 | 55.70127 | 9.16278 | 36670 ft | 424 kts | 276° |
| 2026-05-04 14:27 | 55.70510 | 9.11114 | 36943 ft | 422 kts | 276° |
| 2026-05-04 14:27 | 55.70886 | 9.06020 | 37178 ft | 422 kts | 276° |
| 2026-05-04 14:27 | 55.71270 | 9.00786 | 37379 ft | 423 kts | 276° |
| 2026-05-04 14:28 | 55.71646 | 8.95629 | 37550 ft | 424 kts | 276° |
| 2026-05-04 14:28 | 55.72022 | 8.90432 | 37738 ft | 424 kts | 276° |
| 2026-05-04 14:28 | 55.72395 | 8.85260 | 37983 ft | 423 kts | 276° |
| 2026-05-04 14:28 | 55.72767 | 8.80059 | 37955 ft | 426 kts | 276° |
| 2026-05-04 14:29 | 55.74223 | 8.59412 | 37980 ft | 419 kts | 276° |
| 2026-05-04 14:30 | 55.74927 | 8.49176 | 37986 ft | 417 kts | 275° |
| 2026-05-04 14:31 | 55.75932 | 8.33895 | 37996 ft | 415 kts | 276° |
| 2026-05-04 14:32 | 55.77333 | 8.13454 | 38005 ft | 419 kts | 276° |
| 2026-05-04 14:32 | 55.78009 | 8.03159 | 38007 ft | 421 kts | 276° |
| 2026-05-04 14:33 | 55.78678 | 7.92786 | 38007 ft | 423 kts | 275° |
| 2026-05-04 14:33 | 55.79341 | 7.82366 | 38003 ft | 426 kts | 275° |
| 2026-05-04 14:34 | 55.79999 | 7.71890 | 38008 ft | 427 kts | 275° |
| 2026-05-04 14:34 | 55.80650 | 7.61371 | 38008 ft | 428 kts | 275° |
| 2026-05-04 14:35 | 55.81291 | 7.50872 | 38006 ft | 429 kts | 275° |
| 2026-05-04 14:35 | 55.81926 | 7.40332 | 38008 ft | 428 kts | 275° |
| 2026-05-04 14:36 | 55.82545 | 7.29880 | 37988 ft | 427 kts | 275° |
| 2026-05-04 14:36 | 55.82786 | 7.25788 | 37743 ft | 429 kts | 275° |
| 2026-05-04 14:36 | 55.82790 | 7.25713 | 37741 ft | 429 kts | 275° |
| 2026-05-04 14:36 | 55.83101 | 7.20387 | 37472 ft | 426 kts | 275° |
| 2026-05-04 14:37 | 55.83398 | 7.15244 | 37197 ft | 422 kts | 275° |
| 2026-05-04 14:37 | 55.83696 | 7.10058 | 36937 ft | 422 kts | 275° |
| 2026-05-04 14:37 | 55.83993 | 7.04856 | 36681 ft | 423 kts | 275° |
| 2026-05-04 14:37 | 55.84287 | 6.99648 | 36552 ft | 424 kts | 275° |
| 2026-05-04 14:38 | 55.84580 | 6.94428 | 36521 ft | 424 kts | 275° |
| 2026-05-04 14:38 | 55.85161 | 6.83964 | 36518 ft | 426 kts | 275° |
| 2026-05-04 14:39 | 55.85735 | 6.73454 | 36505 ft | 427 kts | 275° |
| 2026-05-04 14:39 | 55.86300 | 6.62937 | 36509 ft | 427 kts | 275° |
| 2026-05-04 14:40 | 55.87133 | 6.47128 | 36512 ft | 427 kts | 275° |
| 2026-05-04 14:40 | 55.87677 | 6.36590 | 36515 ft | 427 kts | 275° |
| 2026-05-04 14:41 | 55.88212 | 6.26043 | 36520 ft | 427 kts | 275° |
| 2026-05-04 14:42 | 55.89254 | 6.04953 | 36527 ft | 427 kts | 274° |
| 2026-05-04 14:42 | 55.89758 | 5.94486 | 36526 ft | 427 kts | 274° |
| 2026-05-04 14:43 | 55.90256 | 5.83949 | 36518 ft | 427 kts | 274° |
| 2026-05-04 14:43 | 55.90745 | 5.73404 | 36522 ft | 427 kts | 274° |
| 2026-05-04 14:44 | 55.91225 | 5.62862 | 36521 ft | 427 kts | 274° |
| 2026-05-04 14:44 | 55.91696 | 5.52322 | 36518 ft | 426 kts | 274° |
| 2026-05-04 14:45 | 55.92158 | 5.41779 | 36519 ft | 426 kts | 274° |
| 2026-05-04 14:45 | 55.92611 | 5.31232 | 36526 ft | 427 kts | 274° |
| 2026-05-04 14:46 | 55.93055 | 5.20681 | 36525 ft | 427 kts | 274° |
| 2026-05-04 14:46 | 55.93492 | 5.10124 | 36518 ft | 427 kts | 274° |
| 2026-05-04 14:47 | 55.93904 | 4.99561 | 36531 ft | 427 kts | 271° |
| 2026-05-04 14:47 | 55.93870 | 4.88981 | 36523 ft | 427 kts | 268° |
| 2026-05-04 14:48 | 55.93702 | 4.78417 | 36518 ft | 427 kts | 268° |
| 2026-05-04 14:48 | 55.93542 | 4.67829 | 36528 ft | 427 kts | 269° |
| 2026-05-04 14:49 | 55.93397 | 4.57236 | 36521 ft | 427 kts | 269° |
| 2026-05-04 14:49 | 55.93251 | 4.46649 | 36528 ft | 427 kts | 269° |
| 2026-05-04 14:50 | 55.93097 | 4.36063 | 36526 ft | 427 kts | 269° |
| 2026-05-04 14:50 | 55.92932 | 4.25470 | 36521 ft | 427 kts | 268° |
| 2026-05-04 14:51 | 55.92759 | 4.14887 | 36521 ft | 427 kts | 268° |
| 2026-05-04 14:51 | 55.92577 | 4.04307 | 36528 ft | 427 kts | 268° |
| 2026-05-04 14:52 | 55.92386 | 3.93729 | 36527 ft | 427 kts | 268° |
| 2026-05-04 14:52 | 55.92185 | 3.83164 | 36518 ft | 426 kts | 268° |
| 2026-05-04 14:53 | 55.91978 | 3.72669 | 36518 ft | 426 kts | 268° |
| 2026-05-04 14:53 | 55.91761 | 3.62117 | 36518 ft | 426 kts | 268° |
| 2026-05-04 14:54 | 55.91535 | 3.51570 | 36511 ft | 426 kts | 268° |
| 2026-05-04 14:54 | 55.90903 | 3.41095 | 36519 ft | 426 kts | 262° |
| 2026-05-04 14:55 | 55.89982 | 3.30670 | 36530 ft | 425 kts | 262° |
| 2026-05-04 14:55 | 55.89057 | 3.20268 | 36522 ft | 425 kts | 262° |
| 2026-05-04 14:56 | 55.88207 | 3.09869 | 36525 ft | 424 kts | 262° |
| 2026-05-04 14:56 | 55.87294 | 2.99486 | 36537 ft | 424 kts | 262° |
| 2026-05-04 14:57 | 55.86381 | 2.89114 | 36528 ft | 424 kts | 262° |
| 2026-05-04 14:57 | 55.85473 | 2.78755 | 36534 ft | 424 kts | 262° |
| 2026-05-04 14:58 | 55.84561 | 2.68394 | 36537 ft | 423 kts | 262° |
| 2026-05-04 14:58 | 55.83798 | 2.59801 | 36536 ft | 423 kts | 262° |
| 2026-05-04 14:59 | 55.82715 | 2.47721 | 36540 ft | 423 kts | 262° |
| 2026-05-04 15:00 | 55.81308 | 2.32226 | 36536 ft | 423 kts | 261° |
| 2026-05-04 15:00 | 55.80360 | 2.21915 | 36535 ft | 423 kts | 261° |
| 2026-05-04 15:01 | 55.79085 | 2.08203 | 36538 ft | 423 kts | 261° |
| 2026-05-04 15:01 | 55.78117 | 1.97907 | 36534 ft | 422 kts | 261° |
| 2026-05-04 15:02 | 55.77141 | 1.87619 | 36536 ft | 422 kts | 261° |
| 2026-05-04 15:02 | 55.76155 | 1.77324 | 36530 ft | 423 kts | 261° |
| 2026-05-04 15:03 | 55.75159 | 1.67014 | 36536 ft | 425 kts | 261° |
| 2026-05-04 15:03 | 55.74150 | 1.56669 | 36538 ft | 427 kts | 261° |
| 2026-05-04 15:04 | 55.73126 | 1.46268 | 36537 ft | 428 kts | 261° |
| 2026-05-04 15:04 | 55.72092 | 1.35852 | 36539 ft | 430 kts | 261° |
| 2026-05-04 15:05 | 55.71044 | 1.25395 | 36532 ft | 431 kts | 261° |
| 2026-05-04 15:05 | 55.69985 | 1.14931 | 36533 ft | 431 kts | 261° |
| 2026-05-04 15:06 | 55.68919 | 1.04476 | 36529 ft | 431 kts | 261° |
| 2026-05-04 15:07 | 55.67312 | 0.88904 | 36533 ft | 429 kts | 260° |
| 2026-05-04 15:07 | 55.66229 | 0.78521 | 36530 ft | 428 kts | 260° |
| 2026-05-04 15:08 | 55.65141 | 0.68175 | 36530 ft | 427 kts | 260° |
| 2026-05-04 15:08 | 55.64046 | 0.57857 | 36533 ft | 426 kts | 260° |
| 2026-05-04 15:09 | 55.62942 | 0.47534 | 36532 ft | 425 kts | 260° |
| 2026-05-04 15:09 | 55.61838 | 0.37304 | 36529 ft | 424 kts | 260° |
| 2026-05-04 15:10 | 55.60163 | 0.21932 | 36525 ft | 424 kts | 260° |
| 2026-05-04 15:11 | 55.58468 | 0.06576 | 36527 ft | 424 kts | 259° |
| 2026-05-04 15:11 | 55.57327 | -0.03663 | 36516 ft | 425 kts | 259° |
| 2026-05-04 15:12 | 55.56176 | -0.13909 | 36523 ft | 425 kts | 259° |
| 2026-05-04 15:12 | 55.55016 | -0.24153 | 36522 ft | 426 kts | 259° |
| 2026-05-04 15:13 | 55.53846 | -0.34404 | 36522 ft | 426 kts | 259° |
| 2026-05-04 15:13 | 55.52666 | -0.44653 | 36520 ft | 426 kts | 259° |
| 2026-05-04 15:14 | 55.51476 | -0.54916 | 36514 ft | 427 kts | 259° |
| 2026-05-04 15:14 | 55.50277 | -0.65184 | 36522 ft | 428 kts | 259° |
| 2026-05-04 15:15 | 55.49063 | -0.75487 | 36519 ft | 429 kts | 259° |
| 2026-05-04 15:15 | 55.47841 | -0.85803 | 36520 ft | 431 kts | 259° |
| 2026-05-04 15:16 | 55.45797 | -1.01242 | 36366 ft | 435 kts | 251° |
| 2026-05-04 15:16 | 55.42954 | -1.10611 | 35168 ft | 438 kts | 239° |
| 2026-05-04 15:17 | 55.41303 | -1.15121 | 34518 ft | 438 kts | 238° |
| 2026-05-04 15:17 | 55.38028 | -1.24052 | 33530 ft | 431 kts | 239° |
| 2026-05-04 15:17 | 55.36424 | -1.28466 | 33034 ft | 426 kts | 239° |
| 2026-05-04 15:18 | 55.34839 | -1.32843 | 32582 ft | 422 kts | 239° |
| 2026-05-04 15:18 | 55.33274 | -1.37174 | 32122 ft | 418 kts | 239° |
| 2026-05-04 15:18 | 55.31723 | -1.41469 | 31676 ft | 414 kts | 239° |
| 2026-05-04 15:19 | 55.28661 | -1.49927 | 30804 ft | 408 kts | 240° |
| 2026-05-04 15:19 | 55.27408 | -1.53378 | 30715 ft | 396 kts | 240° |
| 2026-05-04 15:19 | 55.24645 | -1.61352 | 29714 ft | 377 kts | 242° |
| 2026-05-04 15:20 | 55.23256 | -1.65225 | 28782 ft | 371 kts | 239° |
| 2026-05-04 15:20 | 55.21896 | -1.68786 | 28062 ft | 356 kts | 239° |
| 2026-05-04 15:20 | 55.20549 | -1.72318 | 27289 ft | 344 kts | 239° |
| 2026-05-04 15:20 | 55.19255 | -1.75762 | 26522 ft | 333 kts | 240° |
| 2026-05-04 15:21 | 55.18017 | -1.79101 | 25790 ft | 324 kts | 239° |
| 2026-05-04 15:21 | 55.16810 | -1.82382 | 25072 ft | 316 kts | 239° |
| 2026-05-04 15:21 | 55.14486 | -1.88694 | 23685 ft | 302 kts | 239° |
| 2026-05-04 15:22 | 55.13420 | -1.91807 | 22875 ft | 294 kts | 250° |
| 2026-05-04 15:22 | 55.13077 | -1.95243 | 22108 ft | 285 kts | 274° |
| 2026-05-04 15:22 | 55.14321 | -2.01575 | 20826 ft | 269 kts | 299° |
| 2026-05-04 15:23 | 55.15214 | -2.04304 | 20614 ft | 249 kts | 300° |
| 2026-05-04 15:23 | 55.16056 | -2.06805 | 20487 ft | 228 kts | 300° |
| 2026-05-04 15:23 | 55.16831 | -2.09105 | 20273 ft | 214 kts | 300° |
| 2026-05-04 15:23 | 55.17568 | -2.11305 | 20012 ft | 205 kts | 299° |
| 2026-05-04 15:24 | 55.19007 | -2.15635 | 19545 ft | 209 kts | 299° |
| 2026-05-04 15:24 | 55.20458 | -2.20030 | 19061 ft | 207 kts | 298° |
| 2026-05-04 15:25 | 55.21173 | -2.22204 | 18832 ft | 205 kts | 298° |
| 2026-05-04 15:25 | 55.21882 | -2.24363 | 18591 ft | 204 kts | 298° |
| 2026-05-04 15:25 | 55.22590 | -2.26525 | 18351 ft | 204 kts | 298° |
| 2026-05-04 15:26 | 55.23997 | -2.30829 | 17819 ft | 203 kts | 298° |
| 2026-05-04 15:26 | 55.24696 | -2.32972 | 17566 ft | 202 kts | 298° |
| 2026-05-04 15:26 | 55.26091 | -2.37254 | 17053 ft | 202 kts | 298° |
| 2026-05-04 15:27 | 55.26789 | -2.39400 | 16790 ft | 202 kts | 298° |
| 2026-05-04 15:27 | 55.28175 | -2.43670 | 16273 ft | 200 kts | 298° |
| 2026-05-04 15:28 | 55.29542 | -2.47887 | 15767 ft | 198 kts | 298° |
| 2026-05-04 15:28 | 55.30221 | -2.49984 | 15517 ft | 197 kts | 298° |
| 2026-05-04 15:28 | 55.31564 | -2.54142 | 15024 ft | 195 kts | 298° |
| 2026-05-04 15:29 | 55.32221 | -2.56178 | 14768 ft | 194 kts | 298° |
| 2026-05-04 15:30 | 55.34863 | -2.64380 | 13823 ft | 191 kts | 297° |
| 2026-05-04 15:30 | 55.36829 | -2.70504 | 13026 ft | 194 kts | 297° |
| 2026-05-04 15:31 | 55.38214 | -2.74832 | 12518 ft | 222 kts | 297° |
| 2026-05-04 15:31 | 55.39031 | -2.77396 | 12291 ft | 259 kts | 298° |
| 2026-05-04 15:32 | 55.42034 | -2.86797 | 11526 ft | 302 kts | 298° |
| 2026-05-04 15:32 | 55.44080 | -2.93219 | 11024 ft | 300 kts | 298° |
| 2026-05-04 15:33 | 55.46421 | -2.99171 | 10504 ft | 295 kts | 320° |
| 2026-05-04 15:34 | 55.52042 | -3.03007 | 9792 ft | 285 kts | 339° |
| 2026-05-04 15:34 | 55.53922 | -3.04009 | 9518 ft | 281 kts | 339° |
| 2026-05-04 15:34 | 55.57611 | -3.06010 | 8989 ft | 274 kts | 339° |
| 2026-05-04 15:35 | 55.61214 | -3.07996 | 8461 ft | 268 kts | 339° |
| 2026-05-04 15:35 | 55.62982 | -3.08978 | 8205 ft | 265 kts | 338° |
| 2026-05-04 15:35 | 55.64734 | -3.09953 | 7953 ft | 263 kts | 338° |
| 2026-05-04 15:36 | 55.68209 | -3.11886 | 7434 ft | 260 kts | 339° |
| 2026-05-04 15:36 | 55.69926 | -3.12846 | 7177 ft | 258 kts | 339° |
| 2026-05-04 15:36 | 55.71642 | -3.13684 | 7060 ft | 256 kts | 348° |
| 2026-05-04 15:37 | 55.73430 | -3.13572 | 6848 ft | 258 kts | 3° |
| 2026-05-04 15:37 | 55.75196 | -3.13118 | 6642 ft | 255 kts | 5° |
| 2026-05-04 15:37 | 55.76937 | -3.12648 | 6444 ft | 252 kts | 5° |
| 2026-05-04 15:37 | 55.78666 | -3.12182 | 6225 ft | 252 kts | 4° |
| 2026-05-04 15:38 | 55.80396 | -3.11724 | 6023 ft | 250 kts | 5° |
| 2026-05-04 15:38 | 55.82116 | -3.11276 | 5822 ft | 250 kts | 4° |
| 2026-05-04 15:38 | 55.83835 | -3.10832 | 5634 ft | 249 kts | 4° |
| 2026-05-04 15:38 | 55.85543 | -3.10396 | 5435 ft | 247 kts | 4° |
| 2026-05-04 15:39 | 55.87240 | -3.09967 | 5242 ft | 246 kts | 5° |
| 2026-05-04 15:39 | 55.88930 | -3.09539 | 5048 ft | 245 kts | 4° |
| 2026-05-04 15:39 | 55.92279 | -3.08690 | 4661 ft | 241 kts | 5° |
| 2026-05-04 15:40 | 55.93910 | -3.08275 | 4501 ft | 232 kts | 4° |
| 2026-05-04 15:40 | 55.95471 | -3.07876 | 4308 ft | 221 kts | 4° |
| 2026-05-04 15:40 | 55.96935 | -3.07503 | 4118 ft | 210 kts | 4° |
| 2026-05-04 15:40 | 55.98359 | -3.07142 | 3961 ft | 198 kts | 4° |
| 2026-05-04 15:41 | 55.99680 | -3.06805 | 3809 ft | 186 kts | 3° |
| 2026-05-04 15:41 | 56.00920 | -3.06488 | 3657 ft | 174 kts | 2° |
| 2026-05-04 15:41 | 56.02115 | -3.06204 | 3539 ft | 172 kts | 358° |
| 2026-05-04 15:41 | 56.03211 | -3.06724 | 3420 ft | 157 kts | 321° |
| 2026-05-04 15:42 | 56.03815 | -3.08155 | 3282 ft | 143 kts | 277° |
| 2026-05-04 15:42 | 56.03592 | -3.09847 | 3226 ft | 144 kts | 255° |
| 2026-05-04 15:42 | 56.03323 | -3.11565 | 3186 ft | 141 kts | 254° |
| 2026-05-04 15:42 | 56.02942 | -3.13189 | 3034 ft | 140 kts | 250° |
| 2026-05-04 15:43 | 56.02532 | -3.14785 | 2855 ft | 141 kts | 248° |
| 2026-05-04 15:43 | 56.02066 | -3.16337 | 2671 ft | 142 kts | 245° |
| 2026-05-04 15:43 | 56.01572 | -3.17851 | 2489 ft | 137 kts | 243° |
| 2026-05-04 15:43 | 56.01103 | -3.19245 | 2307 ft | 132 kts | 244° |
| 2026-05-04 15:44 | 56.00619 | -3.20678 | 2118 ft | 139 kts | 244° |
| 2026-05-04 15:44 | 56.00111 | -3.22175 | 1915 ft | 139 kts | 244° |
| 2026-05-04 15:44 | 55.99629 | -3.23585 | 1728 ft | 127 kts | 245° |
| 2026-05-04 15:44 | 55.99191 | -3.24876 | 1560 ft | 118 kts | 244° |
| 2026-05-04 15:45 | 55.98767 | -3.26130 | 1409 ft | 120 kts | 244° |
| 2026-05-04 15:45 | 55.98337 | -3.27401 | 1246 ft | 121 kts | 243° |
| 2026-05-04 15:45 | 55.97896 | -3.28701 | 1066 ft | 122 kts | 243° |
| 2026-05-04 15:45 | 55.97466 | -3.30012 | 896 ft | 125 kts | 242° |
| 2026-05-04 15:46 | 55.97019 | -3.31316 | 830 ft | 123 kts | 242° |
| 2026-05-04 15:46 | 55.96574 | -3.32620 | 633 ft | 120 kts | 244° |
| 2026-05-04 15:46 | 55.96128 | -3.33903 | 387 ft | 125 kts | 243° |
| 2026-05-04 15:46 | 55.95688 | -3.35223 | 200 ft | 125 kts | 240° |
| 2026-05-04 15:47 | 55.95258 | -3.36497 | 103 ft | 111 kts | 240° |
| 2026-05-04 15:47 | 55.94888 | -3.37582 | 110 ft | 92 kts | 239° |
| 2026-05-04 15:47 | 55.94740 | -3.38014 | 112 ft | 9 kts | 231° |
| 2026-05-04 15:47 | 55.94676 | -3.38035 | 113 ft | 12 kts | 156° |
| 2026-05-04 15:48 | 55.94627 | -3.37984 | 111 ft | 0 kts | 148° |